Newkirk, NM (88431)

2:12 AM MDT on October 26, 2014 (GMT -0600)
Conchas Dam | Change Station
CLOSE
Current Station
Personal Weather Station
Location: Conchas, NM
Elevation: 4268 ft
Nearby Weather Stations

Elev 4268 ft 35.36 °N, 104.22 °W | Updated 11 minutes ago

Clear
Clear
62.7 °F
Feels Like 62.7 °F
N
7.0
Wind Variable Wind from SW
Gusts 15.0 mph

Today
High -- | Low -- °F
--% Chance of Precip.
Yesterday
High -- | Low -- °F
Precip. -- in
7:12 AM 6:08 PM
Waxing Crescent, 6% visible
Pressure 29.84 in
Visibility 10.0 miles
Clouds Clear
Dew Point 36 °F
Humidity 37%
Rainfall 0.00 in
Snow Depth Not available.
UV 0 out of 12
Pollen 3.60 out of 12
Air Quality Not available.
Flu Activity Sporadic
METAR KTCC 260753Z AUTO 22007KT 10SM CLR 16/07 A3002 RMK AO2 SLP105 T01610072

More Conditions Fewer Conditions

Pressure 29.84 in
Visibility 10.0 miles
Clouds Clear
Dew Point 36 °F
Humidity 37%
Rainfall 0.00 in
Snow Depth Not available.
UV 0 out of 12
Pollen 3.60 out of 12
Air Quality Not available.
Flu Activity Sporadic
METAR KTCC 260753Z AUTO 22007KT 10SM CLR 16/07 A3002 RMK AO2 SLP105 T01610072

More Conditions Fewer Conditions

10-Day Weather Forecast

Almanac

Astronomy

Oct. 26, 2014 Rise Set
Actual Time 7:12 AM MDT 6:08 PM MDT
Civil Twilight 6:46 AM MDT 6:34 PM MDT
Nautical Twilight 6:16 AM MDT 7:04 PM MDT
Astronomical Twilight 5:47 AM MDT 7:33 PM MDT
Moon 9:49 AM MDT 8:26 PM MDT
Length of Visible Light 11h 47m
Length of Day
10h 56m
Tomorrow will be 2m 1s shorter.
Waxing Crescent, 6% of the Moon is Illuminated
Today
Waxing Crescent
Oct 30
First Quarter
Nov 6
Full
Nov 14
Last Quarter
Nov 22
New

Today's Extremes

State Highs State Lows

Community

WunderPhotos

Upload Photos

1,765,112 photos uploaded!

Nearby

Snow Depth

Station Depth Elevation
Wesner Springs 0 in 11120 ft
Elk Cabin 0 in 8210 ft
Santa Fe 0 in 11445 ft
Gallegos Peak 0 in 9800 ft
Red River Pass #2 0 in 9850 ft

Earthquake Activity

City Distance Mag. Time & Date
No recent earthquake activity has been reported nearby.
Minimum magnitude displayed is 2.5.

Coastal Water Temperatures

Place Temperature
No Stations Reporting

Nearby Weather Stations